Have a Safe July 4th! 

Flight Track Log - Related Links

Times and Time Zones

All times are in EDT time to prevent confusion due to time zone crossing. See the XSR335 flight status page for this flight to view local times or setup timezone preferences in your user account.

Time Position Orientation Groundspeed Altitude Reporting Facility
EDT Latitude Longitude Course Direction KTS MPH feet Rate Location/Type
Fri 06:08:27 PM 41.9683 -87.8950 102° East 157 181 1,400  Level FlightAware ADS-B
Fri 06:08:37 PM 41.9655 -87.8856 115° Southeast 168 193 2,000 3,375 Climbing FlightAware ADS-B
Fri 06:08:59 PM 41.9567 -87.8637 121° Southeast 198 228 3,200 3,310 Climbing FlightAware ADS-B
Fri 06:09:06 PM 41.9525 -87.8568 140° Southeast 200 230 3,600 3,667 Climbing FlightAware ADS-B
Fri 06:09:17 PM 41.9430 -87.8507 164° South 213 245 4,300 2,571 Climbing FlightAware ADS-B
Fri 06:09:27 PM 41.9330 -87.8492 177° South 218 251 4,500 2,684 Climbing FlightAware ADS-B
Fri 06:09:55 PM 41.9044 -87.8492 180° South 234 269 6,000 3,551 Climbing FlightAware ADS-B
Fri 06:10:16 PM 41.8802 -87.8491 180° South 236 272 7,400 5,613 Climbing FlightAware ADS-B
Fri 06:10:26 PM 41.8557 -87.8487 180° South 237 273 8,900 4,065 Climbing FlightAware ADS-B
Fri 06:10:47 PM 41.8464 -87.8486 179° South 237 273 9,500 3,200 Climbing FlightAware ADS-B
Fri 06:11:11 PM 41.8196 -87.8509 202° Southwest 248 285 11,300 4,769 Climbing FlightAware ADS-B
Fri 06:11:26 PM 41.7926 -87.8705 210° Southwest 254 292 12,600 2,870 Climbing FlightAware ADS-B
Fri 06:11:57 PM 41.7726 -87.8863 211° Southwest 266 306 13,500 1,967 Climbing FlightAware ADS-B
Fri 06:12:27 PM 41.7388 -87.9133 211° Southwest 295 339 14,600 2,700 Climbing FlightAware ADS-B
Fri 06:12:57 PM 41.7079 -87.9383 211° Southwest 298 343 16,200 2,435 Climbing FlightAware ADS-B
Fri 06:13:36 PM 41.6548 -87.9804 211° Southwest 325 374 17,400 1,565 Climbing FlightAware ADS-B
Fri 06:14:06 PM 41.6151 -88.0120 211° Southwest 351 404 18,000 1,180 Climbing FlightAware ADS-B
Fri 06:14:37 PM 41.5713 -88.0469 211° Southwest 369 425 18,600 1,886 Climbing FlightAware ADS-B
Fri 06:15:16 PM 41.5148 -88.0916 211° Southwest 364 419 20,200 2,783 Climbing FlightAware ADS-B
Fri 06:15:46 PM 41.4721 -88.1254 211° Southwest 350 403 21,800 2,800 Climbing FlightAware ADS-B
Fri 06:16:16 PM 41.4286 -88.1597 211° Southwest 348 400 23,000 2,919 Climbing FlightAware ADS-B
Fri 06:16:23 PM 41.4038 -88.1791 207° Southwest 349 402 23,600 6,000 Climbing FlightAware ADS-B
Fri 06:16:28 PM 41.4115 -88.1732 205° Southwest 349 402 24,200 1,650 Climbing FlightAware ADS-B
Fri 06:17:03 PM 41.3599 -88.2006 197° South 347 399 24,700 1,595 Climbing FlightAware ADS-B
Fri 06:17:47 PM 41.2922 -88.2307 199° South 351 404 26,300 2,160 Climbing FlightAware ADS-B
Fri 06:18:18 PM 41.2439 -88.2525 199° South 353 406 27,400 2,090 Climbing FlightAware ADS-B
Fri 06:19:16 PM 41.1535 -88.2935 199° South 365 420 29,400 1,933 Climbing FlightAware ADS-B
Fri 06:19:48 PM 41.1070 -88.3145 199° South 370 426 30,300 1,726 Climbing FlightAware ADS-B
Fri 06:20:29 PM 41.0352 -88.3469 199° South 377 434 31,500 1,758 Climbing FlightAware ADS-B
Fri 06:21:27 PM 40.9388 -88.3903 199° South 379 436 33,200 1,782 Climbing FlightAware ADS-B
Fri 06:22:10 PM 40.8670 -88.4224 199° South 380 437 34,500 1,784 Climbing FlightAware ADS-B
Fri 06:22:41 PM 40.8152 -88.4456 199° South 380 437 35,400 1,846 Climbing FlightAware ADS-B
Fri 06:23:28 PM 40.7361 -88.4808 199° South 376 433 36,900 1,551 Climbing FlightAware ADS-B
Fri 06:24:10 PM 40.6713 -88.5097 199° South 378 435 37,700 1,233 Climbing FlightAware ADS-B
Fri 06:24:41 PM 40.6180 -88.5334 199° South 386 444 38,400 1,017 Climbing FlightAware ADS-B
Fri 06:26:08 PM 40.4781 -88.5955 199° South 394 453 39,700 887 Climbing FlightAware ADS-B
Fri 06:28:58 PM 40.2309 -88.7751 223° Southwest 393 452 42,200 709 Climbing FlightAware ADS-B
Fri 06:31:38 PM 40.0191 -89.0371 224° Southwest 417 480 43,600 480 Climbing FlightAware ADS-B
Fri 06:32:43 PM 39.9114 -89.1681 224° Southwest 411 473 44,000 432 Climbing Kansas City Center
Fri 06:33:43 PM 39.8256 -89.2744 224° Southwest 420 483 44,500 480 Climbing Kansas City Center
Fri 06:34:48 PM 39.7397 -89.3794 223° Southwest 421 484 45,000 242 Climbing Kansas City Center
Fri 06:35:47 PM 39.6486 -89.4925 224° Southwest 423 487 45,000  Level Kansas City Center
Fri 06:36:51 PM 39.5597 -89.6011 223° Southwest 435 501 45,000  Level Kansas City Center
Fri 06:37:51 PM 39.4686 -89.7089 222° Southwest 442 509 45,000  Level Kansas City Center
Fri 06:38:55 PM 39.3603 -89.8411 223° Southwest 443 510 45,000  Level Kansas City Center
Fri 06:39:57 PM 39.2700 -89.9478 222° Southwest 443 510 45,000  Level Kansas City Center
Fri 06:40:59 PM 39.1839 -90.0522 223° Southwest 443 510 45,000  Level Kansas City Center
Fri 06:42:00 PM 39.0942 -90.1606 223° Southwest 443 510 45,000  Level Kansas City Center
Fri 06:43:03 PM 39.0039 -90.2672 223° Southwest 443 510 45,000  Level Kansas City Center
Fri 06:44:04 PM 38.9069 -90.3831 223° Southwest 442 509 45,000  Level Kansas City Center
Fri 06:45:05 PM 38.8161 -90.4889 222° Southwest 442 509 45,000  Level Kansas City Center
Fri 06:46:09 PM 38.7092 -90.6172 223° Southwest 441 507 45,000  Level Kansas City Center
Fri 06:47:10 PM 38.6467 -90.7242 233° Southwest 438 504 45,000  Level Kansas City Center
Fri 06:48:11 PM 38.5772 -90.8533 236° Southwest 438 504 45,000  Level Kansas City Center
Fri 06:49:15 PM 38.4947 -91.0058 235° Southwest 436 502 45,000  Level Kansas City Center
Fri 06:50:16 PM 38.4256 -91.1347 236° Southwest 438 504 45,000  Level Kansas City Center
Fri 06:51:17 PM 38.3361 -91.2439 224° Southwest 449 517 45,000  Level Kansas City Center
Fri 06:52:20 PM 38.2433 -91.3475 221° Southwest 447 514 45,000  Level Kansas City Center
Fri 06:53:21 PM 38.1503 -91.4450 219° Southwest 437 503 45,000  Level Kansas City Center
Fri 06:54:22 PM 38.0369 -91.5667 220° Southwest 436 502 45,000  Level Kansas City Center
Fri 06:55:26 PM 37.9422 -91.6681 220° Southwest 437 503 45,000  Level Kansas City Center
Fri 06:56:27 PM 37.8450 -91.7706 220° Southwest 446 513 45,000  Level Kansas City Center
Fri 06:57:28 PM 37.7503 -91.8717 220° Southwest 446 513 45,000  Level Kansas City Center
Fri 06:58:32 PM 37.6553 -91.9731 220° Southwest 445 512 45,000  Level Kansas City Center
Fri 06:59:36 PM 37.5608 -92.0739 220° Southwest 444 511 45,000  Level Kansas City Center
Fri 07:00:36 PM 37.4656 -92.1736 220° Southwest 444 511 45,000  Level Kansas City Center
Fri 07:01:37 PM 37.3714 -92.2739 220° Southwest 444 511 45,000  Level Kansas City Center
Fri 07:02:40 PM 37.2569 -92.3919 219° Southwest 443 510 45,000  Level Kansas City Center
Fri 07:03:41 PM 37.1625 -92.4908 220° Southwest 443 510 45,000  Level Kansas City Center
Fri 07:04:44 PM 37.0669 -92.5900 220° Southwest 443 510 45,000  Level Kansas City Center
Fri 07:05:45 PM 36.9719 -92.6889 220° Southwest 443 510 45,000  Level Kansas City Center
Fri 07:06:49 PM 36.8764 -92.7869 219° Southwest 443 510 45,000  Level Kansas City Center
Fri 07:12:44 PM 37.1988 -92.4514 219° Southwest 444 511 45,000  Level FlightAware ADS-B
Fri 07:13:14 PM 36.2669 -93.4031 219° Southwest 444 511 45,000  Level Fort Worth Center
Fri 07:18:48 PM 35.7139 -93.9526 219° Southwest 445 512 45,000 -16 Level FlightAware ADS-B
Fri 07:19:29 PM 35.6483 -94.0172 219° Southwest 448 516 44,900 -370 Descending FlightAware ADS-B
Fri 07:20:09 PM 35.5825 -94.0818 219° Southwest 452 520 44,500 -519 Descending FlightAware ADS-B
Fri 07:20:50 PM 35.5177 -94.1453 219° Southwest 448 516 44,200 -450 Descending FlightAware ADS-B
Fri 07:21:29 PM 35.4528 -94.2088 219° Southwest 443 510 43,900 -522 Descending FlightAware ADS-B
Fri 07:21:59 PM 35.4050 -94.2555 219° Southwest 441 507 43,600 -581 Descending FlightAware ADS-B
Fri 07:22:31 PM 35.3548 -94.3067 223° Southwest 442 509 43,300 -462 Descending FlightAware ADS-B
Fri 07:23:17 PM 35.2868 -94.3824 222° Southwest 448 516 43,000 -220 Descending FlightAware ADS-B
Fri 07:23:53 PM 35.2392 -94.4336 222° Southwest 444 511 43,000  Level Memphis Center
Fri 07:24:55 PM 35.1464 -94.5347 222° Southwest 445 512 43,000  Level Memphis Center
Fri 07:25:57 PM 35.0547 -94.6344 222° Southwest 445 512 43,000  Level Memphis Center
Fri 07:26:59 PM 34.9636 -94.7331 222° Southwest 445 512 43,000  Level Memphis Center
Fri 07:28:00 PM 34.8561 -94.8536 223° Southwest 443 510 43,000  Level Memphis Center
Fri 07:28:45 PM 34.8081 -94.9203 229° Southwest 440 506 43,000 -224 Level Fort Worth Center
Fri 07:29:47 PM 34.7250 -95.0247 226° Southwest 437 503 42,600 -823 Descending Fort Worth Center
Fri 07:30:49 PM 34.6269 -95.1503 227° Southwest 435 501 41,300 -1,680 Descending Fort Worth Center
Fri 07:31:52 PM 34.5414 -95.2564 226° Southwest 434 499 39,100 -2,256 Descending Fort Worth Center
Fri 07:32:54 PM 34.4569 -95.3628 226° Southwest 437 503 36,600 -2,419 Descending Fort Worth Center
Fri 07:33:56 PM 34.3694 -95.4717 226° Southwest 447 514 34,100 -2,516 Descending Fort Worth Center
Fri 07:34:58 PM 34.2742 -95.5881 225° Southwest 444 511 31,400 -2,565 Descending Fort Worth Center
Fri 07:36:00 PM 34.1847 -95.6994 226° Southwest 456 525 28,800 -2,613 Descending Fort Worth Center
Fri 07:37:02 PM 34.0886 -95.8183 226° Southwest 457 526 26,000 -2,710 Descending Fort Worth Center
Fri 07:38:04 PM 33.9811 -95.9156 217° Southwest 453 521 23,200 -2,613 Descending Fort Worth Center
Fri 07:39:06 PM 33.8853 -96.0139 220° Southwest 454 522 20,600 -2,516 Descending Fort Worth Center
Fri 07:40:08 PM 33.8011 -96.1272 228° Southwest 439 505 18,000 -2,371 Descending Fort Worth Center
Fri 07:41:10 PM 33.7239 -96.2311 228° Southwest 419 482 15,700 -2,274 Descending Fort Worth Center
Fri 07:42:12 PM 33.6417 -96.3394 228° Southwest 411 473 13,300 -2,081 Descending Fort Worth Center
Fri 07:43:14 PM 33.5694 -96.4358 228° Southwest 390 449 11,400 -1,645 Descending Fort Worth Center
Fri 07:44:16 PM 33.5044 -96.5239 228° Southwest 325 374 9,900 -1,152 Descending Fort Worth Center
Fri 07:45:19 PM 33.4481 -96.5978 228° Southwest 305 351 9,000 -874 Descending Fort Worth Center
Fri 07:50:54 PM 33.2560 -97.0635 233° Southwest 279 321 4,100 -826 Descending FlightAware ADS-B
Fri 07:51:15 PM 33.2365 -97.0942 232° Southwest 278 320 4,100  Level FlightAware ADS-B
Fri 07:51:32 PM 33.2155 -97.1176 203° Southwest 280 322 4,100  Level FlightAware ADS-B (KWRB)
Fri 07:51:55 PM 33.1978 -97.1267 203° Southwest 279 321 4,100  Level FlightAware ADS-B
Fri 07:52:16 PM 33.1837 -97.1344 205° Southwest 279 321 4,100  Level FlightAware ADS-B
Fri 07:53:05 PM 33.1168 -97.1741 206° Southwest 277 319 4,100  Level FlightAware ADS-B
Fri 07:53:22 PM 33.0972 -97.1860 206° Southwest 279 321 4,100  Level FlightAware ADS-B
Fri 07:53:43 PM 33.0725 -97.2009 207° Southwest 279 321 4,100  Level FlightAware ADS-B
Fri 07:54:00 PM 33.0438 -97.2182 207° Southwest 277 319 4,100  Level FlightAware ADS-B (KWRB)
Fri 07:54:19 PM 33.0224 -97.2311 207° Southwest 277 319 4,100  Level FlightAware ADS-B (KWRB)
Fri 07:54:38 PM 33.0040 -97.2422 207° Southwest 273 314 4,100  Level FlightAware ADS-B (KWRB)
Fri 07:54:54 PM 32.9902 -97.2506 206° Southwest 269 310 4,100 -649 Level FlightAware ADS-B
Fri 07:55:15 PM 32.9693 -97.2632 206° Southwest 256 295 3,700 -1,286 Descending FlightAware ADS-B
Fri 07:55:36 PM 32.9476 -97.2762 206° Southwest 243 280 3,200 -1,297 Descending FlightAware ADS-B
Fri 07:55:52 PM 32.9315 -97.2859 206° Southwest 234 269 2,900 -1,135 Descending FlightAware ADS-B
Fri 07:56:13 PM 32.9111 -97.2980 206° Southwest 227 261 2,500 -857 Descending FlightAware ADS-B
Fri 07:56:34 PM 32.8926 -97.3092 207° Southwest 210 242 2,300 -444 Descending FlightAware ADS-B
Fri 07:56:40 PM 32.8798 -97.3150 197° South 199 229 2,300  Level FlightAware ADS-B (KWRB)
Fri 07:56:55 PM 32.8738 -97.3152 180° South 188 216 2,300  Level FlightAware ADS-B
Fri 07:57:15 PM 32.8545 -97.3154 178° South 177 204 2,300  Level FlightAware ADS-B
Fri 07:57:36 PM 32.8391 -97.3134 173° South 175 201 2,300  Level FlightAware ADS-B
Fri 07:57:53 PM 32.8242 -97.3109 171° South 178 205 2,300 -267 Level FlightAware ADS-B
Fri 07:58:21 PM 32.7998 -97.3052 169° South 168 193 2,100 -537 Descending FlightAware ADS-B (KWRB)
Fri 07:59:00 PM 32.7793 -97.3218 250° West 143 165 1,700 -508 Descending FlightAware ADS-B (KWRB)
Fri 07:59:20 PM 32.7764 -97.3361 264° West 136 157 1,600 -600 Descending FlightAware ADS-B (KWRB)
Fri 08:00:00 PM 32.7907 -97.3559 351° North 114 131 1,100 -600 Descending FlightAware ADS-B (KWRB)
Fri 08:00:20 PM 32.8003 -97.3576 354° North 107 123 1,000 -450 Descending FlightAware ADS-B (KWRB)
Fri 08:00:40 PM 32.8102 -97.3592 353° North 108 124 800 -600 Descending FlightAware ADS-B (KWRB)

Login

Don't have an account? Register now (free) for customized features, flight alerts, and more!